createdAt,value
2023-01-11T02:37:26.361Z,4.20
2023-01-11T02:50:45.739Z,4.30
2023-01-11T03:03:57.050Z,4.30
2023-01-11T04:05:24.602Z,4.20
2023-01-11T04:31:44.133Z,3.80
2023-01-11T06:05:58.677Z,2.80
2023-01-11T06:56:24.256Z,2.40
2023-01-11T07:01:28.044Z,2.30
2023-01-11T07:06:35.627Z,2.30
2023-01-11T07:11:39.643Z,2.20
2023-01-11T07:16:43.296Z,2.20
2023-01-11T07:21:46.865Z,2.20
2023-01-11T07:26:52.794Z,2.20
2023-01-11T07:31:56.488Z,2.30
2023-01-11T07:36:59.620Z,2.30
2023-01-11T07:42:23.906Z,2.40
2023-01-11T07:47:28.200Z,2.50
2023-01-11T07:52:31.764Z,2.50
2023-01-11T07:57:35.450Z,2.70
2023-01-11T08:02:39.102Z,2.80
2023-01-11T08:07:45.472Z,3.00
2023-01-11T08:13:08.164Z,3.10
2023-01-11T08:18:13.295Z,3.30
2023-01-11T08:23:21.121Z,3.40
2023-01-11T08:28:25.229Z,3.60
2023-01-11T08:33:29.081Z,3.70
2023-01-11T08:38:32.767Z,3.80
2023-01-11T08:43:39.518Z,4.00
2023-01-11T08:48:43.697Z,4.20
2023-01-11T08:53:47.412Z,4.30
2023-01-11T08:58:55.372Z,4.60
2023-01-11T09:04:09.430Z,4.70
2023-01-11T09:09:41.359Z,4.90
2023-01-11T09:14:48.212Z,5.00
2023-01-11T09:19:51.798Z,5.10
2023-01-11T09:24:55.889Z,5.20
2023-01-11T09:30:04.046Z,5.20
2023-01-11T09:35:10.896Z,5.20
2023-01-11T09:40:24.441Z,5.20
2023-01-11T09:45:31.699Z,5.30
2023-01-11T09:50:51.511Z,5.20
2023-01-11T09:56:00.188Z,5.20
2023-01-11T10:01:30.357Z,5.30
2023-01-11T10:06:39.555Z,5.30
2023-01-11T10:18:40.174Z,5.40
2023-01-11T10:24:15.366Z,5.40
2023-01-11T10:30:30.635Z,5.40
2023-01-11T10:36:06.463Z,5.40
2023-01-11T10:41:34.473Z,5.50
2023-01-11T11:01:54.066Z,5.60
2023-01-11T11:15:02.744Z,5.70
2023-01-11T11:20:37.879Z,5.80
2023-01-11T11:39:34.753Z,5.80
2023-01-11T11:44:41.636Z,5.90
2023-01-11T11:57:40.593Z,6.00
2023-01-11T12:03:34.148Z,6.00
2023-01-11T12:08:37.850Z,6.10
2023-01-11T12:20:35.110Z,6.10
2023-01-11T12:26:10.998Z,6.10
2023-01-11T12:31:51.195Z,6.20
2023-01-11T12:37:27.680Z,6.20
2023-01-11T12:49:38.512Z,6.20
2023-01-11T12:59:04.556Z,6.20
2023-01-11T13:02:42.385Z,6.20
2023-01-11T13:35:10.038Z,6.30
2023-01-11T13:41:09.134Z,6.30
2023-01-11T13:46:41.402Z,6.30
2023-01-11T13:52:24.126Z,6.30
2023-01-11T13:58:01.820Z,6.30
2023-01-11T14:03:25.439Z,6.30
2023-01-11T14:09:10.467Z,6.30
2023-01-11T14:14:51.411Z,6.30
2023-01-11T14:20:03.825Z,6.30
2023-01-11T14:25:49.426Z,6.30
2023-01-11T14:31:19.384Z,6.30
2023-01-11T14:36:44.488Z,6.30
2023-01-11T14:42:35.870Z,6.40
2023-01-11T14:48:30.001Z,6.30
2023-01-11T14:54:14.216Z,6.30
2023-01-11T14:59:47.354Z,6.20
2023-01-11T15:04:57.762Z,6.30
2023-01-11T15:10:33.455Z,6.30
2023-01-11T15:22:43.018Z,6.30
2023-01-11T15:27:46.799Z,6.30
2023-01-11T15:32:51.927Z,6.30
2023-01-11T15:38:21.131Z,6.30
2023-01-11T15:43:44.816Z,6.30
2023-01-11T15:49:36.177Z,6.30
2023-01-11T15:55:40.301Z,6.30
2023-01-11T16:01:20.262Z,6.20
2023-01-11T16:06:59.072Z,6.20
2023-01-11T16:12:34.461Z,6.20
2023-01-11T16:18:13.939Z,6.10
2023-01-11T16:23:32.079Z,6.10
2023-01-11T16:28:50.941Z,6.10
2023-01-11T16:33:56.460Z,6.10
2023-01-11T16:39:13.520Z,6.10
2023-01-11T16:44:29.053Z,6.10
2023-01-11T16:49:34.560Z,6.10
2023-01-11T16:54:38.147Z,6.10
2023-01-11T16:59:41.558Z,6.10
2023-01-11T17:04:54.583Z,6.10
2023-01-11T17:10:20.887Z,6.10
2023-01-11T17:15:50.987Z,6.00
2023-01-11T17:20:58.414Z,6.10
2023-01-11T17:26:02.116Z,6.10
2023-01-11T17:31:05.510Z,6.00
2023-01-11T17:36:09.655Z,6.00
2023-01-11T17:41:32.405Z,6.00
2023-01-11T17:46:35.766Z,6.00
2023-01-11T17:51:41.557Z,6.00
2023-01-11T17:56:59.841Z,6.00
2023-01-11T18:02:15.796Z,6.10
2023-01-11T18:07:20.607Z,6.00
2023-01-11T18:18:53.848Z,6.00
2023-01-11T18:24:15.385Z,5.90
2023-01-11T18:29:39.808Z,5.80
2023-01-11T18:34:50.792Z,5.70
2023-01-11T18:40:20.351Z,5.50
2023-01-11T18:45:31.914Z,5.50
2023-01-11T18:50:44.788Z,5.40
2023-01-11T18:55:57.169Z,5.30
2023-01-11T19:01:08.746Z,5.30
2023-01-11T19:06:21.316Z,5.40
2023-01-11T19:11:30.019Z,5.40
2023-01-11T19:23:36.186Z,5.50
2023-01-11T19:28:53.929Z,5.50
2023-01-11T19:34:14.160Z,5.50
2023-01-11T19:39:18.760Z,5.50
2023-01-11T19:44:34.617Z,5.50
2023-01-11T19:49:47.114Z,5.40
2023-01-11T19:54:58.880Z,5.40
2023-01-11T20:00:06.886Z,5.40
2023-01-11T20:05:14.209Z,5.50
2023-01-11T20:32:31.037Z,5.50
2023-01-11T20:44:47.216Z,5.50
2023-01-11T20:49:53.567Z,5.50
2023-01-11T20:54:58.401Z,5.60
2023-01-11T21:00:01.894Z,5.60
2023-01-11T21:05:06.989Z,5.60
2023-01-11T21:10:11.307Z,5.60
2023-01-11T21:15:15.055Z,5.70
2023-01-11T21:20:18.901Z,5.70
2023-01-11T21:25:22.237Z,5.70
2023-01-11T21:30:25.776Z,5.70
2023-01-11T21:35:28.965Z,5.70
2023-01-11T21:40:34.823Z,5.80
2023-01-11T21:45:38.389Z,5.80
2023-01-11T21:50:46.267Z,5.80
2023-01-11T21:55:50.377Z,5.90
2023-01-11T22:00:54.904Z,5.90
2023-01-11T22:06:03.523Z,5.90
2023-01-11T22:11:09.763Z,6.00
2023-01-11T22:16:17.329Z,6.00
2023-01-11T22:21:21.235Z,6.10
2023-01-11T22:26:25.975Z,6.10
2023-01-11T22:31:30.839Z,6.10
2023-01-11T22:36:34.728Z,6.10
2023-01-11T22:41:38.422Z,6.10
2023-01-11T22:46:44.581Z,6.20
2023-01-11T22:51:48.764Z,6.30
2023-01-11T22:56:52.256Z,6.30
2023-01-11T23:01:56.977Z,6.30
2023-01-11T23:07:00.895Z,6.30
2023-01-11T23:12:23.417Z,6.30
2023-01-11T23:17:27.315Z,6.40
2023-01-11T23:22:30.706Z,6.40
2023-01-11T23:27:34.196Z,6.50
2023-01-11T23:32:41.119Z,6.50
2023-01-11T23:37:44.676Z,6.50
2023-01-11T23:42:48.145Z,6.50
2023-01-11T23:47:51.719Z,6.50
2023-01-11T23:52:57.050Z,6.60
2023-01-11T23:58:14.188Z,6.60
